METAR Data
IDs: Format: Raw Decoded Include TAF

Data at: 1453 UTC 18 Aug 2019

PASO 181353Z AUTO VRB03KT 10SM CLR 12/04 A3011 RMK AO2 SLP195 T01220039 TSNO
PASO 181253Z AUTO 36005KT 10SM CLR 13/04 A3011 RMK AO2 SLP197 T01330039 TSNO
PASO 181153Z AUTO 00000KT 10SM CLR 09/06 A3012 RMK AO2 SLP199 T00890056 10156 20089 56004 TSNO
PASO 181053Z AUTO 20003KT 10SM CLR 11/05 A3012 RMK AO2 SLP199 T01110050 TSNO
PASO 180953Z AUTO 01009KT 10SM CLR 15/04 A3012 RMK AO2 SLP201 T01500044 TSNO
PASO 180853Z AUTO 00000KT 10SM CLR 10/07 A3013 RMK AO2 SLP204 T01000067 402060100 58002 TSNO
PASO 180753Z AUTO 00000KT 10SM CLR 11/08 A3014 RMK AO2 SLP206 T01060078 TSNO
PASO 180653Z AUTO 00000KT 10SM CLR 12/08 A3014 RMK AO2 SLP208 T01170083 TSNO
PASO 180553Z AUTO 00000KT 10SM CLR 13/09 A3014 RMK AO2 SLP206 T01330089 10206 20133 58004 TSNO
PASO 180453Z AUTO 00000KT 10SM CLR 15/08 A3014 RMK AO2 SLP207 T01500083 TSNO
PASO 180353Z AUTO 36004KT 10SM CLR 16/08 A3015 RMK AO2 SLP209 T01560083 TSNO
PASO 180253Z AUTO VRB05KT 10SM CLR 17/08 A3015 RMK AO2 SLP210 T01720078 56009 TSNO
PASO 180153Z AUTO 02009G17KT 10SM CLR 20/07 A3015 RMK AO2 SLP210 T02000067 TSNO
PASO 180053Z AUTO 31004KT 10SM CLR 19/08 A3016 RMK AO2 SLP214 T01940078 TSNO
PASO 172353Z AUTO 01009KT 10SM CLR 21/08 A3018 RMK AO2 SLP218 T02060083 10206 20156 56007 TSNO
PASO 172253Z AUTO 36007KT 10SM CLR 20/06 A3018 RMK AO2 SLP219 T02000056 TSNO
PASO 172153Z AUTO 35006KT 10SM CLR 18/06 A3019 RMK AO2 SLP223 T01830061 TSNO
PASO 172053Z AUTO VRB05KT 10SM CLR 18/07 A3020 RMK AO2 SLP226 T01830067 51004 TSNO
PASO 171953Z AUTO 00000KT 10SM CLR 18/09 A3020 RMK AO2 SLP225 T01830089 TSNO
PASO 171853Z AUTO VRB06KT 10SM CLR 17/07 A3020 RMK AO2 SLP226 T01670072 TSNO
PASO 171753Z AUTO 36004KT 10SM CLR 17/06 A3019 RMK AO2 SLP222 T01720056 10178 20111 51018 TSNO
PASO 171653Z AUTO 02003KT 10SM CLR 16/05 A3017 RMK AO2 SLP215 T01610050 TSNO
PASO 171553Z AUTO 00000KT 10SM CLR 12/08 A3016 RMK AO2 SLP212 T01220083 TSNO
PASO 171453Z AUTO 00000KT 10SM CLR 12/09 A3013 RMK AO2 SLP204 T01220089 51012 TSNO
PASO 171353Z AUTO 03006KT 10SM CLR 13/09 A3012 RMK AO2 SLP199 T01330094 TSNO
PASO 171253Z AUTO 01003KT 10SM CLR 14/09 A3012 RMK AO2 SLP200 T01390094 TSNO
PASO 171153Z AUTO 02007G14KT 340V060 10SM CLR 16/10 A3010 RMK AO2 SLP192 T01610100 10206 20156 55009 TSNO
PASO 171053Z AUTO VRB03KT 10SM CLR 18/10 A3009 RMK AO2 SLP190 T01830100 TSNO
PASO 170953Z AUTO 07004KT 10SM CLR 18/10 A3012 RMK AO2 SLP199 T01830100 TSNO
PASO 170853Z AUTO 04006KT 10SM CLR 18/10 A3012 RMK AO2 SLP201 T01830100 402390117 58006 TSNO
PASO 170753Z AUTO 00000KT 10SM CLR 18/09 A3014 RMK AO2 SLP206 T01780094 TSNO
PASO 170653Z AUTO VRB03KT 10SM CLR 19/09 A3015 RMK AO2 SLP208 T01890089 TSNO
PASO 170553Z AUTO 16008KT 130V210 10SM CLR 21/09 A3014 RMK AO2 SLP207 T02060089 10233 20200 57016 TSNO
PASO 170453Z AUTO 17007KT 10SM CLR 20/09 A3016 RMK AO2 SLP213 T02000094 TSNO
PASO 170353Z AUTO VRB05KT 10SM CLR 21/09 A3017 RMK AO2 SLP218 T02110094 TSNO